Van Buren, Washington
Current Conditions -  °F | °C
As of 8:00 AM on Monday 22 Dec 2014 (Local Time) from CYXX Reporting Station
Few Clouds Few Clouds  
Wind Chill: 35°   Ceiling: Unl
Heat Index: 39°   Visibility: 25mi
Dew Point: 37°   Wind: 6mph
Humidity: 93%   Direction: 190°S
Pressure: 30.28"   Gusts: NA
Location:  48.9068°N, 122.295°W
Report Text: CYXX 221600Z 19005KT 25SM FEW060 FEW140 FEW200 04/03 A3028 RMK SC1AC1CI1 SC TR CI TR SLP256
Loading
Personal Weather Stations






























Interactive Weather Map New forecast layout! Learn more

10-Day Weather Forecast

Advertisements
Track Severe Weather on mobile